Terminal Aerodrome Forecast
Issued by NWS

Current Version | Previous Version | Text Only | Print | Product List | Glossary On
Versions: 1 2 3 4 5 6 7 8 9 10 11 12 13
000
FTUS42 KMLB 222300
TAFFPR
TAF
KFPR 222332Z 2300/2324 09012G20KT P6SM VCSH SCT025 BKN035 OVC050
      TEMPO 2300/2304 -SHRA BKN025 OVC035
     FM231400 15014G22KT P6SM SCT025 BKN040
      TEMPO 2314/2316 BKN025=

USA.gov is the U.S. government's official web portal to all federal, state and local government web resources and services.